Time;durP1;ratioP1;P1;durP2;ratioP2;P2;SDS_P1;SDS_P2;PMS_P1;PMS_P2;Temp;Humidity;BMP_temperature;BMP_pressure;BME280_temperature;BME280_humidity;BME280_pressure;Samples;Min_cycle;Max_cycle;Signal;HPM_P1;HPM_P2
2022/04/04 00:00:37;;;;;;;;;;;3.90;99.90;;;;;;5108796;28;19967;-78
2022/04/04 00:03:04;;;;;;;;;;;3.90;99.90;;;;;;5110326;28;19970;-77
2022/04/04 00:05:30;;;;;;;;;;;3.90;99.90;;;;;;5109054;28;19931;-78
2022/04/04 00:07:55;;;;;;;;;;;3.90;99.90;;;;;;5108875;28;19923;-78
2022/04/04 00:10:21;;;;;;;;;;;4.00;99.90;;;;;;5108522;28;20347;-78
2022/04/04 00:12:46;;;;;;;;;;;3.90;99.90;;;;;;5109036;28;20346;-78
2022/04/04 00:15:12;;;;;;;;;;;4.00;99.90;;;;;;5110186;28;19920;-78
2022/04/04 00:17:38;;;;;;;;;;;4.00;99.90;;;;;;5109949;28;19919;-78
2022/04/04 00:20:05;;;;;;;;;;;4.00;99.90;;;;;;5108784;28;20274;-78
2022/04/04 00:22:31;;;;;;;;;;;4.00;99.90;;;;;;5108773;28;19981;-78
2022/04/04 00:24:56;;;;;;;;;;;4.00;99.90;;;;;;5108965;28;20374;-77
2022/04/04 00:27:22;;;;;;;;;;;4.00;99.90;;;;;;5108882;28;19930;-78
2022/04/04 00:29:48;;;;;;;;;;;4.00;99.90;;;;;;5109930;28;20392;-78
2022/04/04 00:32:13;;;;;;;;;;;4.00;99.90;;;;;;5108632;28;19920;-78
2022/04/04 00:34:39;;;;;;;;;;;4.00;99.90;;;;;;5110040;28;20577;-78
2022/04/04 00:37:04;;;;;;;;;;;4.00;99.90;;;;;;5108694;28;20620;-78
2022/04/04 00:39:30;;;;;;;;;;;4.00;99.90;;;;;;5109786;28;19963;-78
2022/04/04 00:41:56;;;;;;;;;;;4.00;99.90;;;;;;5109860;28;19926;-78
2022/04/04 00:44:21;;;;;;;;;;;4.00;99.90;;;;;;5098627;28;20306;-78
2022/04/04 00:46:47;;;;;;;;;;;3.90;99.90;;;;;;5093560;28;19919;-78
2022/04/04 00:49:12;;;;;;;;;;;4.00;99.90;;;;;;5102017;28;20419;-78
2022/04/04 00:51:38;;;;;;;;;;;3.90;99.90;;;;;;5090646;28;20014;-78
2022/04/04 00:54:05;;;;;;;;;;;3.90;99.90;;;;;;5108188;28;19919;-78
2022/04/04 00:56:31;;;;;;;;;;;3.90;99.90;;;;;;5098176;28;19920;-78
2022/04/04 00:58:56;;;;;;;;;;;3.90;99.90;;;;;;5087993;28;19920;-78
2022/04/04 01:01:22;;;;;;;;;;;3.90;99.90;;;;;;5087401;28;19931;-78
2022/04/04 01:03:48;;;;;;;;;;;3.90;99.90;;;;;;5070504;28;20323;-78
2022/04/04 01:06:13;;;;;;;;;;;4.00;99.90;;;;;;5092191;28;19920;-78
2022/04/04 01:08:39;;;;;;;;;;;3.90;99.90;;;;;;5111324;28;19974;-78
2022/04/04 01:11:05;;;;;;;;;;;4.00;99.90;;;;;;5111018;28;20293;-78
2022/04/04 01:13:31;;;;;;;;;;;4.00;99.90;;;;;;5094602;28;20369;-78
2022/04/04 01:15:56;;;;;;;;;;;4.00;99.90;;;;;;5111227;28;19927;-78
2022/04/04 01:18:22;;;;;;;;;;;4.00;99.90;;;;;;5112305;28;19930;-78
2022/04/04 01:20:47;;;;;;;;;;;4.00;99.90;;;;;;5110628;28;19926;-78
2022/04/04 01:23:16;;;;;;;;;;;4.00;99.90;;;;;;5092773;28;19920;-78
2022/04/04 01:25:41;;;;;;;;;;;4.00;99.90;;;;;;5090651;28;19935;-78
2022/04/04 01:28:07;;;;;;;;;;;4.00;99.90;;;;;;5090517;28;19920;-78
2022/04/04 01:30:32;;;;;;;;;;;4.00;99.90;;;;;;5090309;28;19923;-78
2022/04/04 01:32:58;;;;;;;;;;;4.00;99.90;;;;;;5090726;28;19982;-78
2022/04/04 01:35:24;;;;;;;;;;;4.00;99.90;;;;;;5090251;28;20393;-78
2022/04/04 01:37:50;;;;;;;;;;;4.00;99.90;;;;;;5090981;28;19927;-78
2022/04/04 01:40:15;;;;;;;;;;;4.10;99.90;;;;;;5090320;28;20160;-76
2022/04/04 01:42:41;;;;;;;;;;;4.10;99.90;;;;;;5089927;28;19920;-76
2022/04/04 01:45:08;;;;;;;;;;;4.10;99.90;;;;;;5090087;28;19969;-76
2022/04/04 01:47:34;;;;;;;;;;;4.10;99.90;;;;;;5090195;28;20398;-76
2022/04/04 01:49:59;;;;;;;;;;;4.10;99.90;;;;;;5090140;28;19920;-76
2022/04/04 01:52:25;;;;;;;;;;;4.20;99.90;;;;;;5090863;28;19920;-76
2022/04/04 01:54:51;;;;;;;9.25;5.07;;;4.20;99.90;;;;;;5089754;28;19973;-76
2022/04/04 01:57:16;;;;;;;11.65;7.70;;;4.20;99.90;;;;;;5105834;28;20541;-76
2022/04/04 01:59:43;;;;;;;9.60;6.35;;;4.20;99.90;;;;;;5111066;28;20046;-76
2022/04/04 02:02:09;;;;;;;11.55;7.50;;;4.20;99.90;;;;;;5109935;28;20051;-76
2022/04/04 02:04:35;;;;;;;9.70;6.40;;;4.20;99.90;;;;;;5111397;28;20383;-76
2022/04/04 02:07:01;;;;;;;13.20;8.85;;;4.20;99.90;;;;;;5107568;28;20501;-76
2022/04/04 02:09:26;;;;;;;12.70;9.50;;;4.20;99.90;;;;;;5108473;28;20455;-76
2022/04/04 02:11:52;;;;;;;12.55;8.27;;;4.30;99.90;;;;;;5111253;28;20058;-76
2022/04/04 02:14:17;;;;;;;11.13;7.38;;;4.30;99.90;;;;;;5109798;28;20594;-76
2022/04/04 02:16:43;;;;;;;10.77;7.18;;;4.30;99.90;;;;;;5109035;28;20549;-76
2022/04/04 02:19:10;;;;;;;9.98;6.78;;;4.30;99.90;;;;;;5109128;28;20165;-76
2022/04/04 02:21:36;;;;;;;11.35;7.38;;;4.30;99.90;;;;;;5109305;28;20055;-77
2022/04/04 02:24:02;;;;;;;13.80;7.60;;;4.30;99.90;;;;;;5109333;28;20387;-77
2022/04/04 02:26:28;;;;;;;12.50;7.45;;;4.30;99.90;;;;;;5092429;28;20055;-77
2022/04/04 02:28:53;;;;;;;12.65;8.35;;;4.30;99.90;;;;;;5109214;28;20524;-76
2022/04/04 02:31:19;;;;;;;13.13;7.60;;;4.40;99.90;;;;;;5109093;28;20116;-76
2022/04/04 02:33:45;;;;;;;11.50;7.38;;;4.40;99.90;;;;;;5108999;28;20055;-76
2022/04/04 02:36:10;;;;;;;10.27;7.00;;;4.40;99.90;;;;;;5109562;28;20134;-76
2022/04/04 02:38:36;;;;;;;13.55;7.75;;;4.40;99.90;;;;;;5109304;28;20048;-76
2022/04/04 02:41:02;;;;;;;13.35;8.02;;;4.40;99.90;;;;;;5109251;28;20071;-76
2022/04/04 02:43:28;;;;;;;13.32;7.68;;;4.40;99.90;;;;;;5109716;28;20492;-76
2022/04/04 02:45:53;;;;;;;13.18;8.77;;;4.50;99.90;;;;;;5109395;28;20105;-76
2022/04/04 02:48:20;;;;;;;12.50;8.25;;;4.50;99.90;;;;;;5108543;28;20040;-76
2022/04/04 02:50:46;;;;;;;12.07;9.02;;;4.50;99.90;;;;;;5108398;28;20126;-77
2022/04/04 02:53:12;;;;;;;14.43;9.27;;;4.50;99.90;;;;;;5108736;28;20039;-76
2022/04/04 02:58:22;;;;;;;13.55;9.38;;;4.50;99.90;;;;;;5108822;28;20087;-76
2022/04/04 03:00:48;;;;;;;15.60;9.68;;;4.60;99.90;;;;;;5108959;28;20502;-76
2022/04/04 03:03:14;;;;;;;14.73;9.05;;;4.60;99.90;;;;;;5091782;28;20134;-76
2022/04/04 03:05:39;;;;;;;13.38;9.30;;;4.60;99.90;;;;;;5107817;28;20134;-76
2022/04/04 03:08:06;;;;;;;13.65;8.57;;;4.60;99.90;;;;;;5091694;28;20090;-76
2022/04/04 03:10:33;;;;;;;16.27;10.77;;;4.60;99.90;;;;;;5109536;28;20040;-76
2022/04/04 03:13:02;;;;;;;15.85;10.02;;;4.60;99.90;;;;;;5108120;28;20044;-76
2022/04/04 03:15:28;;;;;;;13.35;10.27;;;4.70;99.90;;;;;;5109764;28;20052;-77
2022/04/04 03:17:56;;;;;;;16.65;10.60;;;4.70;99.90;;;;;;5109604;28;20405;-77
2022/04/04 03:20:23;;;;;;;14.30;9.52;;;4.70;99.90;;;;;;5109501;28;20043;-76
2022/04/04 03:22:51;;;;;;;17.45;10.70;;;4.70;99.90;;;;;;5110028;28;20408;-77
2022/04/04 03:25:17;;;;;;;17.02;10.00;;;4.70;99.90;;;;;;5108304;28;20039;-76
2022/04/04 03:27:44;;;;;;;17.83;10.35;;;4.80;99.90;;;;;;5108038;27;20092;-76
2022/04/04 03:30:19;;;;;;;18.20;14.35;;;4.80;99.90;;;;;;5106853;28;20975;-76
2022/04/04 03:32:46;;;;;;;18.63;14.88;;;4.80;99.90;;;;;;5106545;28;20455;-77
2022/04/04 03:35:15;;;;;;;16.92;11.45;;;4.80;99.90;;;;;;5108423;28;20498;-77
2022/04/04 03:37:43;;;;;;;16.23;11.25;;;4.80;99.90;;;;;;5108442;28;20468;-77
2022/04/04 03:40:12;;;;;;;17.25;11.35;;;4.80;99.90;;;;;;5107903;28;20044;-77
2022/04/04 03:42:38;;;;;;;13.52;9.93;;;4.80;99.90;;;;;;5107598;28;20100;-77
2022/04/04 03:45:05;;;;;;;17.52;10.68;;;4.80;99.90;;;;;;5107814;28;20039;-77
2022/04/04 03:47:32;;;;;;;16.20;10.23;;;4.80;99.90;;;;;;5107972;28;20050;-76
2022/04/04 03:49:59;;;;;;;20.15;12.50;;;4.80;99.90;;;;;;5107762;28;20047;-76
2022/04/04 03:52:25;;;;;;;18.60;10.88;;;4.80;99.90;;;;;;5107105;28;20051;-77
2022/04/04 03:54:51;;;;;;;17.80;11.35;;;4.80;99.90;;;;;;5107731;28;20039;-77
2022/04/04 03:57:17;;;;;;;18.90;10.57;;;4.90;99.90;;;;;;5107498;28;20050;-77
2022/04/04 03:59:44;;;;;;;16.58;12.15;;;4.90;99.90;;;;;;5107561;28;20036;-77
2022/04/04 04:02:11;;;;;;;19.77;11.27;;;4.90;99.90;;;;;;5109011;28;20224;-76
2022/04/04 04:04:37;;;;;;;23.27;12.75;;;4.90;99.90;;;;;;5109225;28;20546;-77
2022/04/04 04:07:04;;;;;;;14.85;9.38;;;4.90;99.90;;;;;;5107020;28;20460;-77
2022/04/04 04:09:30;;;;;;;21.27;11.38;;;4.90;99.90;;;;;;5108651;28;20051;-77
2022/04/04 04:11:56;;;;;;;24.65;13.38;;;4.90;99.90;;;;;;5108935;28;20486;-77
2022/04/04 04:14:22;;;;;;;22.10;12.02;;;4.90;99.90;;;;;;5107413;28;20050;-77
2022/04/04 04:16:48;;;;;;;20.88;12.48;;;4.90;99.90;;;;;;5108726;28;20039;-78
2022/04/04 04:21:58;;;;;;;22.27;14.30;;;4.90;99.90;;;;;;5107259;28;20075;-78
2022/04/04 04:24:23;;;;;;;24.17;14.50;;;4.90;99.90;;;;;;5090588;28;20047;-78
2022/04/04 04:26:50;;;;;;;19.30;12.73;;;4.80;99.90;;;;;;5107731;28;20051;-78
2022/04/04 04:29:16;;;;;;;25.50;14.05;;;4.90;99.90;;;;;;5106771;28;20043;-78
2022/04/04 04:31:42;;;;;;;22.63;14.23;;;4.90;99.90;;;;;;5107283;28;20112;-78
2022/04/04 04:34:08;;;;;;;23.95;15.15;;;4.90;99.90;;;;;;5107534;28;20035;-78
2022/04/04 04:36:33;;;;;;;19.23;12.68;;;4.90;99.90;;;;;;5107502;28;20072;-77
2022/04/04 04:38:59;;;;;;;30.58;14.32;;;4.80;99.90;;;;;;5108094;28;20524;-77
2022/04/04 04:41:25;;;;;;;26.15;16.35;;;4.80;99.90;;;;;;5111318;28;20079;-77
2022/04/04 04:43:51;;;;;;;26.80;16.83;;;4.80;99.90;;;;;;5111901;28;20190;-78
2022/04/04 04:46:16;;;;;;;33.33;23.98;;;4.80;99.90;;;;;;5110197;28;20428;-78
2022/04/04 04:48:42;;;;;;;30.17;22.13;;;4.80;99.90;;;;;;5109272;28;20790;-77
2022/04/04 04:51:08;;;;;;;31.88;24.25;;;4.80;99.90;;;;;;5092942;28;20456;-77
2022/04/04 04:53:34;;;;;;;34.00;24.55;;;4.80;99.90;;;;;;5109729;28;20490;-78
2022/04/04 04:56:00;;;;;;;28.73;21.42;;;4.80;99.90;;;;;;5102615;28;20899;-78
2022/04/04 04:58:26;;;;;;;32.40;23.35;;;4.80;99.90;;;;;;5089487;28;20455;-78
2022/04/04 05:00:51;;;;;;;30.80;22.03;;;4.80;99.90;;;;;;5089329;28;20398;-77
2022/04/04 05:03:26;;;;;;;25.77;17.33;;;4.80;99.90;;;;;;5090321;28;20135;-77
2022/04/04 05:05:52;;;;;;;27.63;17.23;;;4.80;99.90;;;;;;5090500;28;20328;-78
2022/04/04 05:08:17;;;;;;;33.30;16.52;;;4.80;99.90;;;;;;5090206;28;20468;-78
2022/04/04 05:10:43;;;;;;;;;;;4.80;99.90;;;;;;5092490;28;20074;-78
2022/04/04 05:13:08;;;;;;;;;;;4.80;99.90;;;;;;5090456;28;19967;-78
2022/04/04 05:15:34;;;;;;;;;;;4.80;99.90;;;;;;5090429;28;19924;-78
2022/04/04 05:17:59;;;;;;;;;;;4.80;99.90;;;;;;5091282;28;20046;-78
2022/04/04 05:20:25;;;;;;;;;;;4.80;99.90;;;;;;5091791;28;19920;-78
2022/04/04 05:22:51;;;;;;;;;;;4.80;99.90;;;;;;5090618;28;19919;-79
2022/04/04 05:25:16;;;;;;;;;;;4.80;99.90;;;;;;5090708;28;20182;-79
2022/04/04 05:27:42;;;;;;;;;;;4.70;99.90;;;;;;5089811;28;19927;-78
2022/04/04 05:30:08;;;;;;;;;;;4.80;99.90;;;;;;5090617;28;19924;-78
2022/04/04 05:32:34;;;;;;;;;;;4.80;99.90;;;;;;5074208;28;19920;-78
2022/04/04 05:35:06;;;;;;;;;;;4.80;99.90;;;;;;5090518;28;19927;-78
2022/04/04 05:37:31;;;;;;;;;;;4.70;99.90;;;;;;5090446;28;19944;-79
2022/04/04 05:39:57;;;;;;;;;;;4.80;99.90;;;;;;5090466;28;19920;-79
2022/04/04 05:42:22;;;;;;;;;;;4.70;99.90;;;;;;5089914;28;19990;-78
2022/04/04 05:44:48;;;;;;;;;;;4.70;99.90;;;;;;5073366;28;19924;-78
2022/04/04 05:47:17;;;;;;;;;;;4.70;99.90;;;;;;5089942;28;20023;-77
2022/04/04 05:49:43;;;;;;;;;;;4.70;99.90;;;;;;5089787;28;19923;-76
2022/04/04 05:52:09;;;;;;;;;;;4.70;99.90;;;;;;5098860;28;19920;-77
2022/04/04 05:54:34;;;;;;;;;;;4.70;99.90;;;;;;5109275;28;20259;-77
2022/04/04 05:57:00;;;;;;;;;;;4.70;99.90;;;;;;5095833;28;19920;-77
2022/04/04 05:59:26;;;;;;;;;;;4.70;99.90;;;;;;5091031;28;19935;-77
2022/04/04 06:01:51;;;;;;;;;;;4.70;99.90;;;;;;5090420;28;19927;-78
2022/04/04 06:04:17;;;;;;;;;;;4.80;99.90;;;;;;5073629;28;20534;-77
2022/04/04 06:06:42;;;;;;;;;;;4.80;99.90;;;;;;5089690;28;19920;-77
2022/04/04 06:09:08;;;;;;;;;;;4.80;99.90;;;;;;5090121;28;20037;-77
2022/04/04 06:11:34;;;;;;;;;;;4.80;99.90;;;;;;5089892;28;19927;-77
2022/04/04 06:14:00;;;;;;;;;;;4.80;99.90;;;;;;5073190;28;19920;-78
2022/04/04 06:16:25;;;;;;;;;;;4.80;99.90;;;;;;5090110;28;19920;-77
2022/04/04 06:18:51;;;;;;;;;;;4.80;99.90;;;;;;5090395;28;19985;-77
2022/04/04 06:21:17;;;;;;;;;;;4.80;99.90;;;;;;5090742;28;19920;-77
2022/04/04 06:23:42;;;;;;;;;;;4.80;99.90;;;;;;5091895;28;20010;-77
2022/04/04 06:26:08;;;;;;;;;;;4.80;99.90;;;;;;5089719;28;19920;-77
2022/04/04 06:28:35;;;;;;;;;;;4.80;99.90;;;;;;5090442;28;19920;-78
2022/04/04 06:31:01;;;;;;;;;;;4.70;99.90;;;;;;5091594;28;19920;-77
2022/04/04 06:33:27;;;;;;;;;;;4.70;99.90;;;;;;5090246;28;19920;-78
2022/04/04 06:35:53;;;;;;;;;;;4.70;99.90;;;;;;5091370;28;19927;-78
2022/04/04 06:38:19;;;;;;;;;;;4.70;99.90;;;;;;5089852;28;19920;-77
2022/04/04 06:40:45;;;;;;;;;;;4.70;99.90;;;;;;5089829;28;19931;-77
2022/04/04 06:43:10;;;;;;;;;;;4.70;99.90;;;;;;5089837;28;20286;-77
2022/04/04 06:45:36;;;;;;;;;;;4.70;99.90;;;;;;5089795;28;19920;-77
2022/04/04 06:48:02;;;;;;;;;;;4.60;99.90;;;;;;5089881;28;19924;-78
2022/04/04 06:50:30;;;;;;;;;;;4.60;99.90;;;;;;5090959;28;19924;-78
2022/04/04 06:52:55;;;;;;;;;;;4.60;99.90;;;;;;5090643;28;19974;-78
2022/04/04 06:55:21;;;;;;;;;;;4.60;99.90;;;;;;5091390;28;19950;-78
2022/04/04 06:57:47;;;;;;;;;;;4.60;99.90;;;;;;5109594;28;19920;-78
2022/04/04 07:00:15;;;;;;;;;;;4.60;99.90;;;;;;5110750;28;19920;-78
2022/04/04 07:02:41;;;;;;;;;;;4.50;99.90;;;;;;5109860;28;19920;-77
2022/04/04 07:05:08;;;;;;;;;;;4.60;99.90;;;;;;5110045;28;19927;-78
2022/04/04 07:07:34;;;;;;;;;;;4.60;99.90;;;;;;5109542;28;19919;-77
2022/04/04 07:10:00;;;;;;;;;;;4.60;99.90;;;;;;5110528;28;19919;-78
2022/04/04 07:12:27;;;;;;;;;;;4.60;99.90;;;;;;5092625;28;19920;-77
2022/04/04 07:14:53;;;;;;;;;;;4.60;99.90;;;;;;5109364;28;19919;-78
2022/04/04 07:17:19;;;;;;;;;;;4.70;99.90;;;;;;5110652;28;19931;-78
2022/04/04 07:19:45;;;;;;;;;;;4.60;99.90;;;;;;5109495;28;19954;-77
2022/04/04 07:22:11;;;;;;;;;;;4.70;99.90;;;;;;5109188;28;20670;-77
2022/04/04 07:24:36;;;;;;;;;;;4.70;99.90;;;;;;5109622;28;20341;-78
2022/04/04 07:27:03;;;;;;;;;;;4.70;99.90;;;;;;5110801;28;19919;-77
2022/04/04 07:29:29;;;;;;;;;;;4.70;99.90;;;;;;5110873;28;19919;-77
2022/04/04 07:31:54;;;;;;;;;;;4.70;99.90;;;;;;5109337;28;19930;-78
2022/04/04 07:34:20;;;;;;;;;;;4.80;99.90;;;;;;5109169;28;20439;-78
2022/04/04 07:36:45;;;;;;;;;;;4.80;99.90;;;;;;5092465;28;19923;-78
2022/04/04 07:39:11;;;;;;;;;;;4.80;99.90;;;;;;5109478;28;19972;-78
2022/04/04 07:41:37;;;;;;;;;;;4.80;99.90;;;;;;5109317;28;20358;-78
2022/04/04 07:44:03;;;;;;;;;;;4.80;99.90;;;;;;5109079;28;19919;-78
2022/04/04 07:46:29;;;;;;;;;;;4.90;99.90;;;;;;5109243;28;19968;-78
2022/04/04 07:48:55;;;;;;;;;;;4.90;99.90;;;;;;5108890;28;20018;-79
2022/04/04 07:51:21;;;;;;;;;;;5.00;99.90;;;;;;5107968;28;20042;-78
2022/04/04 07:53:47;;;;;;;;;;;5.00;99.90;;;;;;5107993;28;19919;-79
2022/04/04 07:56:12;;;;;;;;;;;5.00;99.90;;;;;;5109405;28;20244;-78
2022/04/04 07:58:38;;;;;;;;;;;5.00;99.90;;;;;;5109433;28;19927;-78
2022/04/04 08:01:03;;;;;;;;;;;5.10;99.90;;;;;;5108026;28;19920;-78
2022/04/04 08:03:29;;;;;;;;;;;5.10;99.90;;;;;;5107677;28;19919;-78
2022/04/04 08:05:55;;;;;;;;;;;5.10;99.90;;;;;;5109231;28;20187;-78
2022/04/04 08:08:20;;;;;;;;;;;5.10;99.90;;;;;;5107678;28;20029;-78
2022/04/04 08:10:46;;;;;;;;;;;5.20;99.90;;;;;;5109409;28;20378;-78
2022/04/04 08:13:12;;;;;;;;;;;5.20;99.90;;;;;;5089849;28;19945;-79
2022/04/04 08:15:37;;;;;;;;;;;5.20;99.90;;;;;;5107628;28;20008;-78
2022/04/04 08:18:03;;;;;;;;;;;5.20;99.90;;;;;;5109719;28;19920;-78
2022/04/04 08:20:29;;;;;;;;;;;5.20;99.90;;;;;;5108686;28;19939;-78
2022/04/04 08:22:54;;;;;;;;;;;5.20;99.90;;;;;;5109610;28;19920;-78
2022/04/04 08:25:20;;;;;;;;;;;5.30;99.90;;;;;;5108670;28;20389;-78
2022/04/04 08:27:46;;;;;;;;;;;5.30;99.90;;;;;;5108607;28;20011;-77
2022/04/04 08:30:12;;;;;;;;;;;5.30;99.90;;;;;;5108705;28;20337;-78
2022/04/04 08:32:39;;;;;;;;;;;5.30;99.90;;;;;;5109648;28;19923;-78
2022/04/04 08:35:06;;;;;;;;;;;5.40;99.90;;;;;;5110038;28;19942;-78
2022/04/04 08:37:33;;;;;;;;;;;5.40;99.90;;;;;;5109121;28;20375;-78
2022/04/04 08:39:59;;;;;;;;;;;5.40;99.90;;;;;;5108680;28;19920;-78
2022/04/04 08:42:27;;;;;;;;;;;5.50;99.90;;;;;;5109555;28;19919;-78
2022/04/04 08:44:56;;;;;;;;;;;5.50;99.90;;;;;;5109623;28;19972;-78
2022/04/04 08:47:22;;;;;;;;;;;5.60;99.90;;;;;;5108300;28;20006;-77
2022/04/04 08:49:49;;;;;;;;;;;5.60;99.90;;;;;;5109648;28;20367;-77
2022/04/04 08:52:15;;;;;;;;;;;5.60;99.90;;;;;;5109517;28;20010;-78
2022/04/04 08:54:41;;;;;;;;;;;5.60;99.90;;;;;;5109423;28;19919;-77
2022/04/04 08:57:06;;;;;;;;;;;5.70;99.90;;;;;;5109557;28;19926;-78
2022/04/04 08:59:32;;;;;;;;;;;5.70;99.90;;;;;;5109429;28;20010;-78
2022/04/04 09:01:57;;;;;;;;;;;5.80;99.90;;;;;;5108314;28;19930;-78
2022/04/04 09:04:23;;;;;;;;;;;5.80;99.90;;;;;;5109389;28;19924;-77
2022/04/04 09:06:52;;;;;;;;;;;5.80;99.90;;;;;;5107937;28;19919;-78
2022/04/04 09:09:19;;;;;;;;;;;5.80;99.90;;;;;;5109861;28;19957;-78
2022/04/04 09:11:52;;;;;;;;;;;5.80;99.90;;;;;;5108265;28;19924;-79
2022/04/04 09:14:21;;;;;;;;;;;5.80;99.90;;;;;;5108167;28;19969;-79
2022/04/04 09:16:53;;;;;;;;;;;5.90;99.90;;;;;;5109470;28;20108;-77
2022/04/04 09:19:26;;;;;;;;;;;5.90;99.90;;;;;;5108987;28;19924;-78
2022/04/04 09:21:51;;;;;;;;;;;5.90;99.90;;;;;;5108370;28;19988;-78
2022/04/04 09:24:17;;;;;;;;;;;5.90;99.90;;;;;;5109555;28;20370;-78
2022/04/04 09:26:43;;;;;;;;;;;5.90;99.90;;;;;;5111684;28;19941;-78
2022/04/04 09:29:19;;;;;;;;;;;6.00;99.90;;;;;;5113187;28;19920;-77
2022/04/04 09:31:54;;;;;;;;;;;6.00;99.90;;;;;;5112899;28;20006;-77
2022/04/04 09:34:20;;;;;;;;;;;6.00;99.90;;;;;;5112763;28;19930;-77
2022/04/04 09:36:46;;;;;;;;;;;6.00;99.90;;;;;;5111751;28;19927;-77
2022/04/04 09:39:13;;;;;;;;;;;6.10;99.90;;;;;;5111531;28;19966;-77
2022/04/04 09:41:39;;;;;;;;;;;6.10;99.90;;;;;;5111407;28;19926;-77
2022/04/04 09:44:05;;;;;;;;;;;6.10;99.90;;;;;;5112789;28;19920;-78
2022/04/04 09:46:57;;;;;;;;;;;6.20;99.90;;;;;;5112618;28;20309;-78
2022/04/04 09:49:22;;;;;;;;;;;6.20;99.90;;;;;;5109222;28;20543;-78
2022/04/04 09:51:50;;;;;;;;;;;6.20;99.90;;;;;;5112478;28;19920;-78
2022/04/04 09:54:19;;;;;;;;;;;6.20;99.90;;;;;;5094218;28;19926;-78
2022/04/04 09:56:46;;;;;;;;;;;6.30;99.90;;;;;;5112454;28;20300;-78
2022/04/04 09:59:14;;;;;;;;;;;6.30;99.90;;;;;;5111546;28;19941;-77
2022/04/04 10:01:41;;;;;;;;;;;6.30;99.90;;;;;;5110933;28;20018;-77
2022/04/04 10:04:07;;;;;;;;;;;6.30;99.90;;;;;;5110829;28;19926;-77
2022/04/04 10:06:33;;;;;;;;;;;6.40;99.90;;;;;;5110660;28;19919;-78
2022/04/04 10:08:59;;;;;;;;;;;6.40;99.90;;;;;;5111160;28;19974;-77
2022/04/04 10:11:26;;;;;;;;;;;6.40;99.90;;;;;;5111803;28;19924;-77
2022/04/04 10:13:52;;;;;;;;;;;6.50;99.90;;;;;;5110956;28;20392;-78
2022/04/04 10:16:18;;;;;;;;;;;6.40;99.90;;;;;;5110817;28;20393;-78
2022/04/04 10:18:44;;;;;;;;;;;6.50;99.90;;;;;;5111156;28;19919;-78
2022/04/04 10:21:11;;;;;;;;;;;6.50;99.90;;;;;;5112131;28;19920;-77
2022/04/04 10:23:37;;;;;;;;;;;6.50;99.90;;;;;;5110858;28;20014;-78
2022/04/04 10:26:03;;;;;;;;;;;6.60;99.90;;;;;;5111095;28;20420;-78
2022/04/04 10:28:30;;;;;;;;;;;6.60;99.90;;;;;;5110264;28;19998;-78
2022/04/04 10:31:00;;;;;;;;;;;6.60;99.90;;;;;;5111124;28;19926;-76
2022/04/04 10:33:26;;;;;;;;;;;6.60;99.90;;;;;;5110559;28;19927;-77
2022/04/04 10:36:03;;;;;;;;;;;6.60;99.90;;;;;;5110718;28;19923;-77
2022/04/04 10:38:29;;;;;;;;;;;6.60;99.90;;;;;;5111167;28;19920;-76
2022/04/04 10:40:55;;;;;;;;;;;6.70;99.90;;;;;;5112057;28;19967;-77
2022/04/04 10:43:21;;;;;;;;;;;6.70;99.90;;;;;;5111456;28;19971;-77
2022/04/04 10:45:49;;;;;;;;;;;6.70;99.90;;;;;;5111829;28;20279;-77
2022/04/04 10:48:16;;;;;;;;;;;6.70;99.90;;;;;;5111488;28;20761;-77
2022/04/04 10:50:42;;;;;;;;;;;6.70;99.90;;;;;;5109789;28;19958;-77
2022/04/04 10:53:08;;;;;;;;;;;6.70;99.90;;;;;;5110222;28;19924;-78
2022/04/04 10:55:34;;;;;;;;;;;6.80;99.90;;;;;;5110556;28;19931;-78
2022/04/04 10:58:00;;;;;;;;;;;6.80;99.90;;;;;;5111133;28;19931;-78
2022/04/04 11:00:33;;;;;;;;;;;6.90;99.90;;;;;;5092928;28;20430;-78
2022/04/04 11:03:00;;;;;;;;;;;6.90;99.90;;;;;;5111048;27;19927;-78
2022/04/04 11:08:14;;;;;;;;;;;7.00;99.90;;;;;;5071778;28;20357;-78
2022/04/04 11:10:47;;;;;;;;;;;7.00;99.90;;;;;;5111255;28;19931;-78
2022/04/04 11:13:16;;;;;;;;;;;7.00;99.90;;;;;;5092939;28;20438;-78
2022/04/04 11:15:43;;;;;;;;;;;7.00;99.90;;;;;;5109400;28;20334;-78
2022/04/04 11:18:09;;;;;;;;;;;7.10;99.90;;;;;;5109609;28;20028;-79
2022/04/04 11:20:36;;;;;;;;;;;7.00;99.90;;;;;;5110089;28;20352;-78
2022/04/04 11:23:10;;;;;;;;;;;7.10;99.90;;;;;;5109733;28;20450;-78
2022/04/04 11:25:37;;;;;;;;;;;7.10;99.90;;;;;;5109451;28;19969;-79
2022/04/04 11:28:06;;;;;;;;;;;7.10;99.90;;;;;;5110794;27;19927;-78
2022/04/04 11:30:32;;;;;;;;;;;7.10;99.90;;;;;;5110513;28;20010;-78
2022/04/04 11:32:59;;;;;;;;;;;7.10;99.90;;;;;;5109893;28;20002;-77
2022/04/04 11:35:27;;;;;;;;;;;7.10;99.90;;;;;;5109392;28;20011;-77
2022/04/04 11:38:00;;;;;;;;;;;7.10;99.90;;;;;;5109232;28;19926;-78
2022/04/04 11:40:29;;;;;;;;;;;7.20;99.90;;;;;;5109372;28;19926;-78
2022/04/04 11:42:56;;;;;;;;;;;7.20;99.90;;;;;;5109132;28;19919;-77
2022/04/04 11:45:26;;;;;;;;;;;7.20;99.90;;;;;;5109135;28;19924;-78
2022/04/04 11:47:52;;;;;;;;;;;7.20;99.90;;;;;;5108983;28;19998;-78
2022/04/04 11:50:17;;;;;;;;;;;7.20;99.90;;;;;;5108311;28;20428;-78
2022/04/04 11:52:44;;;;;;;;;;;7.20;99.90;;;;;;5108725;28;20267;-78
2022/04/04 11:55:13;;;;;;;;;;;7.30;99.90;;;;;;5108876;28;19960;-78
2022/04/04 11:57:39;;;;;;;;;;;7.30;99.90;;;;;;5088607;28;19965;-78
2022/04/04 12:00:05;;;;;;;;;;;7.30;99.90;;;;;;5088641;28;19920;-78
2022/04/04 12:02:30;;;;;;;;;;;7.40;99.90;;;;;;5088503;28;19920;-79
2022/04/04 12:04:57;;;;;;;;;;;7.40;99.90;;;;;;5089267;28;19920;-79
2022/04/04 12:07:23;;;;;;;;;;;7.40;99.90;;;;;;5088228;28;19920;-78
2022/04/04 12:09:51;;;;;;;;;;;7.50;99.90;;;;;;5087952;28;20406;-78
2022/04/04 12:12:17;;;;;;;;;;;7.50;99.90;;;;;;5088178;28;20379;-78
2022/04/04 12:14:46;;;;;;;;;;;7.50;99.90;;;;;;5088383;28;19930;-78
2022/04/04 12:17:12;;;;;;;;;;;7.60;99.90;;;;;;5071635;28;19925;-77
2022/04/04 12:19:44;;;;;;;;;;;7.50;99.90;;;;;;5088441;28;20515;-77
2022/04/04 12:24:55;;;;;;;;;;;7.60;99.90;;;;;;5089480;28;19930;-79
2022/04/04 12:27:21;;;;;;;;;;;7.70;99.90;;;;;;5089597;28;19935;-77
2022/04/04 12:29:46;;;;;;;;;;;7.70;99.90;;;;;;5089600;28;19932;-77
2022/04/04 12:32:15;;;;;;;;;;;7.70;99.90;;;;;;5088063;28;20082;-77
2022/04/04 12:34:53;;;;;;;;;;;7.70;99.90;;;;;;5089031;28;19993;-77
2022/04/04 12:37:18;;;;;;;;;;;7.80;99.90;;;;;;5088232;28;19924;-77
2022/04/04 12:39:44;;;;;;;;;;;7.80;99.90;;;;;;5088854;28;19924;-78
2022/04/04 12:42:09;;;;;;;;;;;7.80;99.90;;;;;;5088220;28;20005;-76
2022/04/04 12:44:35;;;;;;;;;;;7.90;99.90;;;;;;5088969;28;19928;-76
2022/04/04 12:47:06;;;;;;;;;;;7.90;99.90;;;;;;5088294;28;20394;-76
2022/04/04 12:49:32;;;;;;;;;;;7.90;99.90;;;;;;5089257;28;19935;-77
2022/04/04 12:52:00;;;;;;;;;;;8.00;99.90;;;;;;5088346;28;19934;-77
2022/04/04 12:54:25;;;;;;;;;;;8.00;99.90;;;;;;5088033;28;19931;-77
2022/04/04 12:56:52;;;;;;;;;;;8.00;99.90;;;;;;5088317;28;19924;-78
2022/04/04 12:59:18;;;;;;;;;;;8.00;99.90;;;;;;5087672;28;19928;-77
2022/04/04 13:01:59;;;;;;;;;;;8.10;99.90;;;;;;5091942;28;19924;-77
2022/04/04 13:04:24;;;;;;;;;;;8.10;99.90;;;;;;5091888;28;19926;-77
2022/04/04 13:06:50;;;;;;;;;;;8.10;99.90;;;;;;5106201;28;19930;-77
2022/04/04 13:09:26;;;;;;;;;;;8.20;99.90;;;;;;5112488;28;19923;-77
2022/04/04 13:11:54;;;;;;;;;;;8.20;99.90;;;;;;5112276;28;20390;-77
2022/04/04 13:14:21;;;;;;;;;;;8.30;99.90;;;;;;5113257;28;19934;-77
2022/04/04 13:16:56;;;;;;;;;;;8.30;99.90;;;;;;5113314;27;19938;-76
2022/04/04 13:19:23;;;;;;;;;;;8.30;99.90;;;;;;5113228;28;19938;-76
2022/04/04 13:21:50;;;;;;;;;;;8.30;99.90;;;;;;5113623;28;19931;-76
2022/04/04 13:24:15;;;;;;;;;;;8.40;99.90;;;;;;5111653;28;20469;-76
2022/04/04 13:26:41;;;;;;;;;;;8.40;99.90;;;;;;5111740;28;20026;-76
2022/04/04 13:29:08;;;;;;;;;;;8.50;99.90;;;;;;5113088;28;19928;-76
2022/04/04 13:31:37;;;;;;;;;;;8.50;99.90;;;;;;5113239;28;19953;-76
2022/04/04 13:34:02;;;;;;;;;;;8.60;99.90;;;;;;5113413;28;19965;-76
2022/04/04 13:36:28;;;;;;;;;;;8.60;99.90;;;;;;5111495;28;19927;-76
2022/04/04 13:38:56;;;;;;;;;;;8.60;99.90;;;;;;5111705;28;19978;-76
2022/04/04 13:41:29;;;;;;;;;;;8.70;99.90;;;;;;5111672;28;19928;-78
2022/04/04 13:43:55;;;;;;;;;;;8.70;99.90;;;;;;5111607;28;19951;-78
2022/04/04 13:46:22;;;;;;;;;;;8.80;99.90;;;;;;5111099;28;19949;-77
2022/04/04 13:48:47;;;;;;;;;;;8.80;99.90;;;;;;5111124;28;20506;-78
2022/04/04 13:51:18;;;;;;;;;;;8.80;99.90;;;;;;5111760;28;19931;-78
2022/04/04 13:53:44;;;;;;;;;;;8.90;99.90;;;;;;5111817;28;20373;-77
2022/04/04 13:56:10;;;;;;;;;;;8.90;99.90;;;;;;5106180;28;19970;-77
2022/04/04 13:58:36;;;;;;;;;;;8.90;99.90;;;;;;5112054;28;19986;-75
2022/04/04 14:01:02;;;;;;;;;;;9.00;99.90;;;;;;5094368;28;19928;-76
2022/04/04 14:03:28;;;;;;;;;;;9.00;99.90;;;;;;5112449;28;19923;-76
2022/04/04 14:05:56;;;;;;;;;;;9.00;99.90;;;;;;5094900;28;19924;-75
2022/04/04 14:08:22;;;;;;;;;;;9.00;99.90;;;;;;5111060;28;20056;-75